sensor_id;sensor_type;location;lat;lon;timestamp;temperature;humidity
9949;DHT22;5013;51.840;8.276;2023-06-26T00:01:50;22.20;1.00
9949;DHT22;5013;51.840;8.276;2023-06-26T00:04:16;22.20;1.00
9949;DHT22;5013;51.840;8.276;2023-06-26T00:06:42;22.20;1.00
9949;DHT22;5013;51.840;8.276;2023-06-26T00:09:07;22.10;1.00
9949;DHT22;5013;51.840;8.276;2023-06-26T00:11:33;22.10;1.00
9949;DHT22;5013;51.840;8.276;2023-06-26T00:14:02;22.00;1.00
9949;DHT22;5013;51.840;8.276;2023-06-26T00:16:28;22.10;1.00
9949;DHT22;5013;51.840;8.276;2023-06-26T00:18:53;22.00;1.00
9949;DHT22;5013;51.840;8.276;2023-06-26T00:21:19;22.00;1.00
9949;DHT22;5013;51.840;8.276;2023-06-26T00:23:45;22.00;1.00
9949;DHT22;5013;51.840;8.276;2023-06-26T00:26:11;22.00;1.00
9949;DHT22;5013;51.840;8.276;2023-06-26T00:28:37;21.90;1.00
9949;DHT22;5013;51.840;8.276;2023-06-26T00:31:03;21.90;1.00
9949;DHT22;5013;51.840;8.276;2023-06-26T00:33:29;21.90;1.00
9949;DHT22;5013;51.840;8.276;2023-06-26T00:35:54;21.90;1.00
9949;DHT22;5013;51.840;8.276;2023-06-26T00:38:20;21.80;1.00
9949;DHT22;5013;51.840;8.276;2023-06-26T00:40:46;21.70;99.90
9949;DHT22;5013;51.840;8.276;2023-06-26T00:43:12;21.70;99.90
9949;DHT22;5013;51.840;8.276;2023-06-26T00:45:37;21.60;99.90
9949;DHT22;5013;51.840;8.276;2023-06-26T00:48:03;21.60;1.00
9949;DHT22;5013;51.840;8.276;2023-06-26T00:50:29;21.60;1.00
9949;DHT22;5013;51.840;8.276;2023-06-26T00:52:55;21.60;99.90
9949;DHT22;5013;51.840;8.276;2023-06-26T00:55:28;21.40;99.90
9949;DHT22;5013;51.840;8.276;2023-06-26T00:57:54;21.40;99.90
9949;DHT22;5013;51.840;8.276;2023-06-26T01:00:20;21.40;99.90
9949;DHT22;5013;51.840;8.276;2023-06-26T01:02:46;21.40;99.90
9949;DHT22;5013;51.840;8.276;2023-06-26T01:05:13;21.50;99.90
9949;DHT22;5013;51.840;8.276;2023-06-26T01:07:44;21.50;99.90
9949;DHT22;5013;51.840;8.276;2023-06-26T01:10:10;21.40;21.80
9949;DHT22;5013;51.840;8.276;2023-06-26T01:12:36;21.40;1.00
9949;DHT22;5013;51.840;8.276;2023-06-26T01:15:04;21.40;1.00
9949;DHT22;5013;51.840;8.276;2023-06-26T01:17:30;21.50;1.00
9949;DHT22;5013;51.840;8.276;2023-06-26T01:20:00;21.40;1.00
9949;DHT22;5013;51.840;8.276;2023-06-26T01:22:32;21.40;1.00
9949;DHT22;5013;51.840;8.276;2023-06-26T01:27:30;21.30;6.80
9949;DHT22;5013;51.840;8.276;2023-06-26T01:30:00;21.20;99.90
9949;DHT22;5013;51.840;8.276;2023-06-26T01:32:29;21.30;1.00
9949;DHT22;5013;51.840;8.276;2023-06-26T01:34:55;21.30;1.00
9949;DHT22;5013;51.840;8.276;2023-06-26T01:37:20;21.30;1.00
9949;DHT22;5013;51.840;8.276;2023-06-26T01:39:46;21.30;1.00
9949;DHT22;5013;51.840;8.276;2023-06-26T01:42:11;21.20;1.00
9949;DHT22;5013;51.840;8.276;2023-06-26T01:44:41;21.20;1.00
9949;DHT22;5013;51.840;8.276;2023-06-26T01:47:08;21.20;1.00
9949;DHT22;5013;51.840;8.276;2023-06-26T01:52:49;21.30;1.00
9949;DHT22;5013;51.840;8.276;2023-06-26T01:55:36;21.30;99.90
9949;DHT22;5013;51.840;8.276;2023-06-26T01:58:03;21.30;1.00
9949;DHT22;5013;51.840;8.276;2023-06-26T02:00:29;21.20;99.90
9949;DHT22;5013;51.840;8.276;2023-06-26T02:02:54;21.20;1.00
9949;DHT22;5013;51.840;8.276;2023-06-26T02:05:20;21.10;1.00
9949;DHT22;5013;51.840;8.276;2023-06-26T02:07:46;21.10;1.00
9949;DHT22;5013;51.840;8.276;2023-06-26T02:10:11;21.10;99.90
9949;DHT22;5013;51.840;8.276;2023-06-26T02:12:38;21.10;99.90
9949;DHT22;5013;51.840;8.276;2023-06-26T02:15:04;21.00;99.90
9949;DHT22;5013;51.840;8.276;2023-06-26T02:17:30;21.00;1.00
9949;DHT22;5013;51.840;8.276;2023-06-26T02:19:55;20.90;1.00
9949;DHT22;5013;51.840;8.276;2023-06-26T02:22:21;20.80;1.00
9949;DHT22;5013;51.840;8.276;2023-06-26T02:24:47;20.80;1.00
9949;DHT22;5013;51.840;8.276;2023-06-26T02:27:12;20.70;1.00
9949;DHT22;5013;51.840;8.276;2023-06-26T02:29:39;20.70;99.90
9949;DHT22;5013;51.840;8.276;2023-06-26T02:32:05;20.70;99.90
9949;DHT22;5013;51.840;8.276;2023-06-26T02:34:31;20.70;59.20
9949;DHT22;5013;51.840;8.276;2023-06-26T02:36:56;20.60;1.00
9949;DHT22;5013;51.840;8.276;2023-06-26T02:39:24;20.70;1.00
9949;DHT22;5013;51.840;8.276;2023-06-26T02:41:49;20.70;1.00
9949;DHT22;5013;51.840;8.276;2023-06-26T02:44:15;20.70;1.00
9949;DHT22;5013;51.840;8.276;2023-06-26T02:46:41;20.70;1.00
9949;DHT22;5013;51.840;8.276;2023-06-26T02:49:06;20.80;1.00
9949;DHT22;5013;51.840;8.276;2023-06-26T02:51:33;20.80;1.00
9949;DHT22;5013;51.840;8.276;2023-06-26T02:53:59;20.70;1.00
9949;DHT22;5013;51.840;8.276;2023-06-26T02:56:24;20.60;1.00
9949;DHT22;5013;51.840;8.276;2023-06-26T02:58:56;20.50;1.00
9949;DHT22;5013;51.840;8.276;2023-06-26T03:01:22;20.50;1.00
9949;DHT22;5013;51.840;8.276;2023-06-26T03:03:48;20.60;1.00
9949;DHT22;5013;51.840;8.276;2023-06-26T03:06:14;20.60;1.00
9949;DHT22;5013;51.840;8.276;2023-06-26T03:08:40;20.60;1.00
9949;DHT22;5013;51.840;8.276;2023-06-26T03:11:07;20.60;1.00
9949;DHT22;5013;51.840;8.276;2023-06-26T03:13:34;20.60;1.00
9949;DHT22;5013;51.840;8.276;2023-06-26T03:15:59;20.50;1.00
9949;DHT22;5013;51.840;8.276;2023-06-26T03:18:25;20.50;1.00
9949;DHT22;5013;51.840;8.276;2023-06-26T03:20:52;20.50;1.00
9949;DHT22;5013;51.840;8.276;2023-06-26T03:23:19;20.60;1.00
9949;DHT22;5013;51.840;8.276;2023-06-26T03:25:45;20.50;1.00
9949;DHT22;5013;51.840;8.276;2023-06-26T03:28:11;20.60;1.00
9949;DHT22;5013;51.840;8.276;2023-06-26T03:30:37;20.60;1.00
9949;DHT22;5013;51.840;8.276;2023-06-26T03:33:03;20.60;1.00
9949;DHT22;5013;51.840;8.276;2023-06-26T03:35:28;20.50;1.00
9949;DHT22;5013;51.840;8.276;2023-06-26T03:37:54;20.50;1.00
9949;DHT22;5013;51.840;8.276;2023-06-26T03:40:19;20.60;1.00
9949;DHT22;5013;51.840;8.276;2023-06-26T03:42:45;20.50;1.00
9949;DHT22;5013;51.840;8.276;2023-06-26T03:45:11;20.50;1.00
9949;DHT22;5013;51.840;8.276;2023-06-26T03:47:36;20.40;1.00
9949;DHT22;5013;51.840;8.276;2023-06-26T03:50:02;20.40;1.00
9949;DHT22;5013;51.840;8.276;2023-06-26T03:52:28;20.40;1.00
9949;DHT22;5013;51.840;8.276;2023-06-26T03:54:59;20.40;1.00
9949;DHT22;5013;51.840;8.276;2023-06-26T03:57:25;20.40;1.00
9949;DHT22;5013;51.840;8.276;2023-06-26T03:59:51;20.50;1.00
9949;DHT22;5013;51.840;8.276;2023-06-26T04:02:17;20.50;1.00
9949;DHT22;5013;51.840;8.276;2023-06-26T04:04:42;20.50;1.00
9949;DHT22;5013;51.840;8.276;2023-06-26T04:07:08;20.60;1.00
9949;DHT22;5013;51.840;8.276;2023-06-26T04:09:33;20.60;99.90
9949;DHT22;5013;51.840;8.276;2023-06-26T04:11:59;20.70;99.90
9949;DHT22;5013;51.840;8.276;2023-06-26T04:14:24;20.70;34.50
9949;DHT22;5013;51.840;8.276;2023-06-26T04:16:50;20.80;42.10
9949;DHT22;5013;51.840;8.276;2023-06-26T04:19:16;20.80;99.90
9949;DHT22;5013;51.840;8.276;2023-06-26T04:21:41;20.90;1.00
9949;DHT22;5013;51.840;8.276;2023-06-26T04:24:07;20.90;10.20
9949;DHT22;5013;51.840;8.276;2023-06-26T04:26:33;21.00;1.00
9949;DHT22;5013;51.840;8.276;2023-06-26T04:28:59;21.10;99.90
9949;DHT22;5013;51.840;8.276;2023-06-26T04:31:28;21.30;34.00
9949;DHT22;5013;51.840;8.276;2023-06-26T04:33:54;21.50;1.00
9949;DHT22;5013;51.840;8.276;2023-06-26T04:36:21;21.60;99.90
9949;DHT22;5013;51.840;8.276;2023-06-26T04:38:46;21.70;99.90
9949;DHT22;5013;51.840;8.276;2023-06-26T04:41:14;21.80;8.20
9949;DHT22;5013;51.840;8.276;2023-06-26T04:43:39;22.00;1.00
9949;DHT22;5013;51.840;8.276;2023-06-26T04:46:05;22.10;1.00
9949;DHT22;5013;51.840;8.276;2023-06-26T04:48:32;22.20;1.00
9949;DHT22;5013;51.840;8.276;2023-06-26T04:50:57;22.40;99.90
9949;DHT22;5013;51.840;8.276;2023-06-26T04:53:24;23.40;99.90
9949;DHT22;5013;51.840;8.276;2023-06-26T04:55:50;25.20;1.00
9949;DHT22;5013;51.840;8.276;2023-06-26T04:58:16;26.90;1.00
9949;DHT22;5013;51.840;8.276;2023-06-26T05:00:42;28.20;1.00
9949;DHT22;5013;51.840;8.276;2023-06-26T05:03:09;29.00;1.00
9949;DHT22;5013;51.840;8.276;2023-06-26T05:05:34;29.20;1.00
9949;DHT22;5013;51.840;8.276;2023-06-26T05:08:13;29.10;1.00
9949;DHT22;5013;51.840;8.276;2023-06-26T05:10:39;29.00;1.00
9949;DHT22;5013;51.840;8.276;2023-06-26T05:13:05;29.00;1.00
9949;DHT22;5013;51.840;8.276;2023-06-26T05:15:30;28.80;1.00
9949;DHT22;5013;51.840;8.276;2023-06-26T05:17:56;28.60;1.00
9949;DHT22;5013;51.840;8.276;2023-06-26T05:20:21;28.20;1.00
9949;DHT22;5013;51.840;8.276;2023-06-26T05:22:47;28.10;1.00
9949;DHT22;5013;51.840;8.276;2023-06-26T05:25:14;28.00;1.00
9949;DHT22;5013;51.840;8.276;2023-06-26T05:27:41;27.50;1.00
9949;DHT22;5013;51.840;8.276;2023-06-26T05:30:07;27.40;1.00
9949;DHT22;5013;51.840;8.276;2023-06-26T05:32:34;27.30;1.00
9949;DHT22;5013;51.840;8.276;2023-06-26T05:35:02;27.60;1.00
9949;DHT22;5013;51.840;8.276;2023-06-26T05:37:29;27.60;1.00
9949;DHT22;5013;51.840;8.276;2023-06-26T05:39:56;27.70;1.00
9949;DHT22;5013;51.840;8.276;2023-06-26T05:42:22;27.50;1.00
9949;DHT22;5013;51.840;8.276;2023-06-26T05:44:47;27.40;1.00
9949;DHT22;5013;51.840;8.276;2023-06-26T05:47:13;27.20;1.00
9949;DHT22;5013;51.840;8.276;2023-06-26T05:49:38;27.30;1.00
9949;DHT22;5013;51.840;8.276;2023-06-26T05:52:04;27.00;1.00
9949;DHT22;5013;51.840;8.276;2023-06-26T05:54:30;26.90;1.00
9949;DHT22;5013;51.840;8.276;2023-06-26T05:56:57;26.80;1.00
9949;DHT22;5013;51.840;8.276;2023-06-26T05:59:26;26.70;1.00
9949;DHT22;5013;51.840;8.276;2023-06-26T06:01:52;26.60;1.00
9949;DHT22;5013;51.840;8.276;2023-06-26T06:04:18;26.70;1.00
9949;DHT22;5013;51.840;8.276;2023-06-26T06:06:43;26.90;1.00
9949;DHT22;5013;51.840;8.276;2023-06-26T06:09:09;26.60;1.00
9949;DHT22;5013;51.840;8.276;2023-06-26T06:11:35;26.30;1.00
9949;DHT22;5013;51.840;8.276;2023-06-26T06:14:00;26.60;1.00
9949;DHT22;5013;51.840;8.276;2023-06-26T06:16:26;26.70;1.00
9949;DHT22;5013;51.840;8.276;2023-06-26T06:18:54;26.90;1.00
9949;DHT22;5013;51.840;8.276;2023-06-26T06:21:19;26.80;1.00
9949;DHT22;5013;51.840;8.276;2023-06-26T06:23:45;27.00;1.00
9949;DHT22;5013;51.840;8.276;2023-06-26T06:26:11;27.20;1.00
9949;DHT22;5013;51.840;8.276;2023-06-26T06:28:36;27.10;1.00
9949;DHT22;5013;51.840;8.276;2023-06-26T06:31:02;27.30;1.00
9949;DHT22;5013;51.840;8.276;2023-06-26T06:33:28;26.90;1.00
9949;DHT22;5013;51.840;8.276;2023-06-26T06:35:53;26.60;1.00
9949;DHT22;5013;51.840;8.276;2023-06-26T06:38:19;26.30;1.00
9949;DHT22;5013;51.840;8.276;2023-06-26T06:40:44;26.10;1.00
9949;DHT22;5013;51.840;8.276;2023-06-26T06:43:10;26.10;1.00
9949;DHT22;5013;51.840;8.276;2023-06-26T06:45:35;26.20;1.00
9949;DHT22;5013;51.840;8.276;2023-06-26T06:48:03;26.30;1.00
9949;DHT22;5013;51.840;8.276;2023-06-26T06:50:29;26.00;1.00
9949;DHT22;5013;51.840;8.276;2023-06-26T06:52:54;25.60;1.00
9949;DHT22;5013;51.840;8.276;2023-06-26T06:55:20;25.60;1.00
9949;DHT22;5013;51.840;8.276;2023-06-26T06:57:45;26.10;1.00
9949;DHT22;5013;51.840;8.276;2023-06-26T07:00:12;26.00;1.00
9949;DHT22;5013;51.840;8.276;2023-06-26T07:02:42;26.00;1.00
9949;DHT22;5013;51.840;8.276;2023-06-26T07:05:07;26.10;1.00
9949;DHT22;5013;51.840;8.276;2023-06-26T07:07:34;26.30;1.00
9949;DHT22;5013;51.840;8.276;2023-06-26T07:10:08;26.10;1.00
9949;DHT22;5013;51.840;8.276;2023-06-26T07:12:34;26.10;1.00
9949;DHT22;5013;51.840;8.276;2023-06-26T07:15:01;26.20;1.00
9949;DHT22;5013;51.840;8.276;2023-06-26T07:17:28;26.40;1.00
9949;DHT22;5013;51.840;8.276;2023-06-26T07:19:53;26.80;1.00
9949;DHT22;5013;51.840;8.276;2023-06-26T07:22:19;26.90;1.00
9949;DHT22;5013;51.840;8.276;2023-06-26T07:24:46;26.90;1.00
9949;DHT22;5013;51.840;8.276;2023-06-26T07:27:16;26.80;1.00
9949;DHT22;5013;51.840;8.276;2023-06-26T07:29:42;26.60;1.00
9949;DHT22;5013;51.840;8.276;2023-06-26T07:32:08;27.00;1.00
9949;DHT22;5013;51.840;8.276;2023-06-26T07:34:33;26.80;1.00
9949;DHT22;5013;51.840;8.276;2023-06-26T07:36:59;26.70;1.00
9949;DHT22;5013;51.840;8.276;2023-06-26T07:39:25;26.70;1.00
9949;DHT22;5013;51.840;8.276;2023-06-26T07:41:50;26.60;1.00
9949;DHT22;5013;51.840;8.276;2023-06-26T07:44:16;26.20;78.90
9949;DHT22;5013;51.840;8.276;2023-06-26T07:46:41;26.30;99.90
9949;DHT22;5013;51.840;8.276;2023-06-26T07:49:07;26.10;99.90
9949;DHT22;5013;51.840;8.276;2023-06-26T07:51:33;26.10;99.90
9949;DHT22;5013;51.840;8.276;2023-06-26T07:53:58;25.70;99.90
9949;DHT22;5013;51.840;8.276;2023-06-26T07:56:24;25.60;99.90
9949;DHT22;5013;51.840;8.276;2023-06-26T07:58:49;25.50;99.90
9949;DHT22;5013;51.840;8.276;2023-06-26T08:01:15;25.30;99.90
9949;DHT22;5013;51.840;8.276;2023-06-26T08:03:41;25.10;1.00
9949;DHT22;5013;51.840;8.276;2023-06-26T08:06:07;24.80;1.00
9949;DHT22;5013;51.840;8.276;2023-06-26T08:08:33;24.60;1.00
9949;DHT22;5013;51.840;8.276;2023-06-26T08:10:58;24.50;1.00
9949;DHT22;5013;51.840;8.276;2023-06-26T08:13:25;24.40;1.00
9949;DHT22;5013;51.840;8.276;2023-06-26T08:15:50;24.20;1.00
9949;DHT22;5013;51.840;8.276;2023-06-26T08:18:17;24.10;1.00
9949;DHT22;5013;51.840;8.276;2023-06-26T08:20:42;24.30;31.80
9949;DHT22;5013;51.840;8.276;2023-06-26T08:23:08;24.40;1.00
9949;DHT22;5013;51.840;8.276;2023-06-26T08:25:34;24.50;1.00
9949;DHT22;5013;51.840;8.276;2023-06-26T08:27:59;24.60;1.00
9949;DHT22;5013;51.840;8.276;2023-06-26T08:30:25;24.80;1.00
9949;DHT22;5013;51.840;8.276;2023-06-26T08:32:56;24.90;1.00
9949;DHT22;5013;51.840;8.276;2023-06-26T08:35:21;25.20;1.00
9949;DHT22;5013;51.840;8.276;2023-06-26T08:37:47;25.40;99.90
9949;DHT22;5013;51.840;8.276;2023-06-26T08:40:16;25.60;99.90
9949;DHT22;5013;51.840;8.276;2023-06-26T08:42:42;25.70;99.90
9949;DHT22;5013;51.840;8.276;2023-06-26T08:45:08;25.80;99.90
9949;DHT22;5013;51.840;8.276;2023-06-26T08:47:34;26.00;99.90
9949;DHT22;5013;51.840;8.276;2023-06-26T08:52:53;25.90;99.90
9949;DHT22;5013;51.840;8.276;2023-06-26T08:55:20;25.90;99.90
9949;DHT22;5013;51.840;8.276;2023-06-26T08:57:50;25.60;99.90
9949;DHT22;5013;51.840;8.276;2023-06-26T09:00:16;25.70;99.90
9949;DHT22;5013;51.840;8.276;2023-06-26T09:02:42;25.80;99.90
9949;DHT22;5013;51.840;8.276;2023-06-26T09:05:08;25.80;99.90
9949;DHT22;5013;51.840;8.276;2023-06-26T09:07:34;26.10;99.90
9949;DHT22;5013;51.840;8.276;2023-06-26T09:10:00;26.30;99.90
9949;DHT22;5013;51.840;8.276;2023-06-26T09:12:27;26.20;99.90
9949;DHT22;5013;51.840;8.276;2023-06-26T09:14:54;26.00;99.90
9949;DHT22;5013;51.840;8.276;2023-06-26T09:17:29;26.20;99.90
9949;DHT22;5013;51.840;8.276;2023-06-26T09:19:55;26.10;99.90
9949;DHT22;5013;51.840;8.276;2023-06-26T09:22:20;26.00;99.90
9949;DHT22;5013;51.840;8.276;2023-06-26T09:24:47;26.00;99.90
9949;DHT22;5013;51.840;8.276;2023-06-26T09:27:12;26.30;99.90
9949;DHT22;5013;51.840;8.276;2023-06-26T09:29:38;26.60;16.90
9949;DHT22;5013;51.840;8.276;2023-06-26T09:32:04;26.90;99.90
9949;DHT22;5013;51.840;8.276;2023-06-26T09:34:31;26.90;1.00
9949;DHT22;5013;51.840;8.276;2023-06-26T09:36:58;26.50;99.90
9949;DHT22;5013;51.840;8.276;2023-06-26T09:39:24;26.40;99.90
9949;DHT22;5013;51.840;8.276;2023-06-26T09:41:50;26.50;99.90
9949;DHT22;5013;51.840;8.276;2023-06-26T09:44:16;26.30;91.60
9949;DHT22;5013;51.840;8.276;2023-06-26T09:46:45;26.30;99.90
9949;DHT22;5013;51.840;8.276;2023-06-26T09:49:11;26.60;1.90
9949;DHT22;5013;51.840;8.276;2023-06-26T09:51:40;26.50;49.20
9949;DHT22;5013;51.840;8.276;2023-06-26T09:54:06;26.50;99.90
9949;DHT22;5013;51.840;8.276;2023-06-26T09:56:33;26.70;34.30
9949;DHT22;5013;51.840;8.276;2023-06-26T09:59:05;27.10;1.00
9949;DHT22;5013;51.840;8.276;2023-06-26T10:01:31;27.30;1.00
9949;DHT22;5013;51.840;8.276;2023-06-26T10:03:57;27.60;1.00
9949;DHT22;5013;51.840;8.276;2023-06-26T10:06:46;27.60;1.00
9949;DHT22;5013;51.840;8.276;2023-06-26T10:09:15;27.40;1.00
9949;DHT22;5013;51.840;8.276;2023-06-26T10:12:05;27.40;1.00
9949;DHT22;5013;51.840;8.276;2023-06-26T10:14:34;27.20;1.00
9949;DHT22;5013;51.840;8.276;2023-06-26T10:17:04;26.80;1.00
9949;DHT22;5013;51.840;8.276;2023-06-26T10:19:33;26.60;1.00
9949;DHT22;5013;51.840;8.276;2023-06-26T10:22:00;26.90;1.00
9949;DHT22;5013;51.840;8.276;2023-06-26T10:24:29;27.20;1.00
9949;DHT22;5013;51.840;8.276;2023-06-26T10:27:04;27.30;1.00
9949;DHT22;5013;51.840;8.276;2023-06-26T10:29:30;27.80;1.00
9949;DHT22;5013;51.840;8.276;2023-06-26T10:31:58;27.70;1.00
9949;DHT22;5013;51.840;8.276;2023-06-26T10:34:25;27.20;1.00
9949;DHT22;5013;51.840;8.276;2023-06-26T10:37:02;26.60;1.00
9949;DHT22;5013;51.840;8.276;2023-06-26T10:39:53;26.20;1.00
9949;DHT22;5013;51.840;8.276;2023-06-26T10:42:34;25.90;1.00
9949;DHT22;5013;51.840;8.276;2023-06-26T10:45:09;25.80;24.10
9949;DHT22;5013;51.840;8.276;2023-06-26T10:47:36;26.00;57.50
9949;DHT22;5013;51.840;8.276;2023-06-26T10:50:30;26.20;1.00
9949;DHT22;5013;51.840;8.276;2023-06-26T10:55:35;26.00;1.00
9949;DHT22;5013;51.840;8.276;2023-06-26T10:58:01;26.20;1.00
9949;DHT22;5013;51.840;8.276;2023-06-26T11:00:28;26.60;1.00
9949;DHT22;5013;51.840;8.276;2023-06-26T11:02:53;26.90;1.00
9949;DHT22;5013;51.840;8.276;2023-06-26T11:05:33;27.20;1.00
9949;DHT22;5013;51.840;8.276;2023-06-26T11:08:06;27.30;1.00
9949;DHT22;5013;51.840;8.276;2023-06-26T11:10:49;27.30;1.00
9949;DHT22;5013;51.840;8.276;2023-06-26T11:13:17;26.70;1.00
9949;DHT22;5013;51.840;8.276;2023-06-26T11:15:44;26.30;1.00
9949;DHT22;5013;51.840;8.276;2023-06-26T11:18:12;25.80;1.00
9949;DHT22;5013;51.840;8.276;2023-06-26T11:20:39;26.00;1.00
9949;DHT22;5013;51.840;8.276;2023-06-26T11:23:05;26.40;1.00
9949;DHT22;5013;51.840;8.276;2023-06-26T11:25:35;26.50;1.00
9949;DHT22;5013;51.840;8.276;2023-06-26T11:28:02;26.90;1.00
9949;DHT22;5013;51.840;8.276;2023-06-26T11:30:28;27.10;1.00
9949;DHT22;5013;51.840;8.276;2023-06-26T11:33:11;27.10;1.00
9949;DHT22;5013;51.840;8.276;2023-06-26T11:35:36;27.40;1.00
9949;DHT22;5013;51.840;8.276;2023-06-26T11:38:03;27.30;1.00
9949;DHT22;5013;51.840;8.276;2023-06-26T11:40:36;27.30;1.00
9949;DHT22;5013;51.840;8.276;2023-06-26T11:43:02;27.30;1.00
9949;DHT22;5013;51.840;8.276;2023-06-26T11:45:29;27.50;1.00
9949;DHT22;5013;51.840;8.276;2023-06-26T11:47:56;27.60;1.00
9949;DHT22;5013;51.840;8.276;2023-06-26T11:50:22;27.70;1.00
9949;DHT22;5013;51.840;8.276;2023-06-26T11:52:56;27.90;1.00
9949;DHT22;5013;51.840;8.276;2023-06-26T11:55:23;28.10;1.00
9949;DHT22;5013;51.840;8.276;2023-06-26T11:57:56;28.40;1.00
9949;DHT22;5013;51.840;8.276;2023-06-26T12:00:22;27.90;1.00
9949;DHT22;5013;51.840;8.276;2023-06-26T12:02:48;27.60;1.00
9949;DHT22;5013;51.840;8.276;2023-06-26T12:05:15;26.80;1.00
9949;DHT22;5013;51.840;8.276;2023-06-26T12:07:42;26.70;1.00
9949;DHT22;5013;51.840;8.276;2023-06-26T12:10:10;27.10;1.00
9949;DHT22;5013;51.840;8.276;2023-06-26T12:12:37;27.30;1.00
9949;DHT22;5013;51.840;8.276;2023-06-26T12:15:03;27.50;1.00
9949;DHT22;5013;51.840;8.276;2023-06-26T12:17:29;27.50;1.00
9949;DHT22;5013;51.840;8.276;2023-06-26T12:19:55;27.70;1.00
9949;DHT22;5013;51.840;8.276;2023-06-26T12:22:20;27.80;1.00
9949;DHT22;5013;51.840;8.276;2023-06-26T12:24:47;28.00;1.00
9949;DHT22;5013;51.840;8.276;2023-06-26T12:27:14;28.00;1.00
9949;DHT22;5013;51.840;8.276;2023-06-26T12:29:46;28.00;1.00
9949;DHT22;5013;51.840;8.276;2023-06-26T12:32:12;28.20;1.00
9949;DHT22;5013;51.840;8.276;2023-06-26T12:34:40;28.10;1.00
9949;DHT22;5013;51.840;8.276;2023-06-26T12:37:08;27.90;1.00
9949;DHT22;5013;51.840;8.276;2023-06-26T12:39:49;27.70;1.00
9949;DHT22;5013;51.840;8.276;2023-06-26T12:42:17;27.60;1.00
9949;DHT22;5013;51.840;8.276;2023-06-26T12:44:43;27.40;1.00
9949;DHT22;5013;51.840;8.276;2023-06-26T12:47:08;27.50;1.00
9949;DHT22;5013;51.840;8.276;2023-06-26T12:49:39;27.20;1.00
9949;DHT22;5013;51.840;8.276;2023-06-26T12:52:07;27.20;1.00
9949;DHT22;5013;51.840;8.276;2023-06-26T12:54:38;27.00;1.00
9949;DHT22;5013;51.840;8.276;2023-06-26T12:57:04;27.00;1.00
9949;DHT22;5013;51.840;8.276;2023-06-26T12:59:31;26.80;1.00
9949;DHT22;5013;51.840;8.276;2023-06-26T13:01:57;26.80;1.00
9949;DHT22;5013;51.840;8.276;2023-06-26T13:04:23;26.90;1.00
9949;DHT22;5013;51.840;8.276;2023-06-26T13:06:49;26.70;1.00
9949;DHT22;5013;51.840;8.276;2023-06-26T13:09:15;26.90;1.00
9949;DHT22;5013;51.840;8.276;2023-06-26T13:11:41;26.80;1.00
9949;DHT22;5013;51.840;8.276;2023-06-26T13:14:07;27.00;1.00
9949;DHT22;5013;51.840;8.276;2023-06-26T13:16:32;27.10;1.00
9949;DHT22;5013;51.840;8.276;2023-06-26T13:18:58;27.30;1.00
9949;DHT22;5013;51.840;8.276;2023-06-26T13:21:24;27.50;1.00
9949;DHT22;5013;51.840;8.276;2023-06-26T13:23:50;27.50;1.00
9949;DHT22;5013;51.840;8.276;2023-06-26T13:26:15;27.70;1.00
9949;DHT22;5013;51.840;8.276;2023-06-26T13:28:41;27.50;1.00
9949;DHT22;5013;51.840;8.276;2023-06-26T13:31:07;27.20;1.00
9949;DHT22;5013;51.840;8.276;2023-06-26T13:33:32;27.30;1.00
9949;DHT22;5013;51.840;8.276;2023-06-26T13:35:58;27.20;1.00
9949;DHT22;5013;51.840;8.276;2023-06-26T13:38:24;26.60;1.00
9949;DHT22;5013;51.840;8.276;2023-06-26T13:40:52;26.50;1.00
9949;DHT22;5013;51.840;8.276;2023-06-26T13:43:18;26.50;1.00
9949;DHT22;5013;51.840;8.276;2023-06-26T13:45:44;26.30;1.00
9949;DHT22;5013;51.840;8.276;2023-06-26T13:48:09;26.10;1.00
9949;DHT22;5013;51.840;8.276;2023-06-26T13:50:35;26.10;1.00
9949;DHT22;5013;51.840;8.276;2023-06-26T13:53:00;26.10;1.00
9949;DHT22;5013;51.840;8.276;2023-06-26T13:55:28;26.10;1.00
9949;DHT22;5013;51.840;8.276;2023-06-26T13:57:54;26.30;1.00
9949;DHT22;5013;51.840;8.276;2023-06-26T14:00:21;26.30;1.00
9949;DHT22;5013;51.840;8.276;2023-06-26T14:02:50;26.40;1.00
9949;DHT22;5013;51.840;8.276;2023-06-26T14:05:16;26.30;1.00
9949;DHT22;5013;51.840;8.276;2023-06-26T14:07:44;26.00;1.00
9949;DHT22;5013;51.840;8.276;2023-06-26T14:10:10;26.10;1.00
9949;DHT22;5013;51.840;8.276;2023-06-26T14:12:35;26.40;1.00
9949;DHT22;5013;51.840;8.276;2023-06-26T14:15:01;26.60;1.00
9949;DHT22;5013;51.840;8.276;2023-06-26T14:17:27;26.60;1.00
9949;DHT22;5013;51.840;8.276;2023-06-26T14:19:53;26.80;1.00
9949;DHT22;5013;51.840;8.276;2023-06-26T14:22:18;26.80;1.00
9949;DHT22;5013;51.840;8.276;2023-06-26T14:24:44;26.70;1.00
9949;DHT22;5013;51.840;8.276;2023-06-26T14:27:10;26.40;1.00
9949;DHT22;5013;51.840;8.276;2023-06-26T14:29:36;26.10;1.00
9949;DHT22;5013;51.840;8.276;2023-06-26T14:32:02;26.30;1.00
9949;DHT22;5013;51.840;8.276;2023-06-26T14:34:28;26.40;1.00
9949;DHT22;5013;51.840;8.276;2023-06-26T14:36:54;26.40;1.00
9949;DHT22;5013;51.840;8.276;2023-06-26T14:39:19;26.50;1.00
9949;DHT22;5013;51.840;8.276;2023-06-26T14:41:45;26.50;1.00
9949;DHT22;5013;51.840;8.276;2023-06-26T14:44:12;26.40;1.00
9949;DHT22;5013;51.840;8.276;2023-06-26T14:46:38;26.30;1.00
9949;DHT22;5013;51.840;8.276;2023-06-26T14:49:04;26.50;1.00
9949;DHT22;5013;51.840;8.276;2023-06-26T14:51:29;26.30;1.00
9949;DHT22;5013;51.840;8.276;2023-06-26T14:53:55;25.80;1.00
9949;DHT22;5013;51.840;8.276;2023-06-26T14:56:20;26.00;1.00
9949;DHT22;5013;51.840;8.276;2023-06-26T14:58:46;26.10;1.00
9949;DHT22;5013;51.840;8.276;2023-06-26T15:01:16;26.10;1.00
9949;DHT22;5013;51.840;8.276;2023-06-26T15:03:42;26.30;1.00
9949;DHT22;5013;51.840;8.276;2023-06-26T15:06:08;26.10;1.00
9949;DHT22;5013;51.840;8.276;2023-06-26T15:08:34;26.20;1.00
9949;DHT22;5013;51.840;8.276;2023-06-26T15:11:01;26.10;1.00
9949;DHT22;5013;51.840;8.276;2023-06-26T15:13:28;26.10;1.00
9949;DHT22;5013;51.840;8.276;2023-06-26T15:15:53;25.80;1.00
9949;DHT22;5013;51.840;8.276;2023-06-26T15:18:19;25.60;1.00
9949;DHT22;5013;51.840;8.276;2023-06-26T15:20:44;25.40;1.00
9949;DHT22;5013;51.840;8.276;2023-06-26T15:23:10;25.30;1.00
9949;DHT22;5013;51.840;8.276;2023-06-26T15:25:36;25.30;1.00
9949;DHT22;5013;51.840;8.276;2023-06-26T15:28:05;25.20;1.00
9949;DHT22;5013;51.840;8.276;2023-06-26T15:30:31;25.00;1.00
9949;DHT22;5013;51.840;8.276;2023-06-26T15:32:57;25.10;1.00
9949;DHT22;5013;51.840;8.276;2023-06-26T15:35:23;25.40;1.00
9949;DHT22;5013;51.840;8.276;2023-06-26T15:37:48;25.30;1.00
9949;DHT22;5013;51.840;8.276;2023-06-26T15:40:15;25.30;1.00
9949;DHT22;5013;51.840;8.276;2023-06-26T15:42:51;25.40;1.00
9949;DHT22;5013;51.840;8.276;2023-06-26T15:45:18;25.50;1.00
9949;DHT22;5013;51.840;8.276;2023-06-26T15:47:44;25.40;1.00
9949;DHT22;5013;51.840;8.276;2023-06-26T15:50:10;25.60;1.00
9949;DHT22;5013;51.840;8.276;2023-06-26T15:52:37;25.50;1.00
9949;DHT22;5013;51.840;8.276;2023-06-26T15:55:03;25.60;1.00
9949;DHT22;5013;51.840;8.276;2023-06-26T15:57:31;25.60;1.00
9949;DHT22;5013;51.840;8.276;2023-06-26T15:59:57;25.50;1.00
9949;DHT22;5013;51.840;8.276;2023-06-26T16:02:23;25.70;1.00
9949;DHT22;5013;51.840;8.276;2023-06-26T16:04:49;25.70;1.00
9949;DHT22;5013;51.840;8.276;2023-06-26T16:07:15;25.50;1.00
9949;DHT22;5013;51.840;8.276;2023-06-26T16:09:41;25.60;1.00
9949;DHT22;5013;51.840;8.276;2023-06-26T16:12:06;25.50;1.00
9949;DHT22;5013;51.840;8.276;2023-06-26T16:14:32;25.30;1.00
9949;DHT22;5013;51.840;8.276;2023-06-26T16:16:58;25.10;1.00
9949;DHT22;5013;51.840;8.276;2023-06-26T16:19:24;24.90;1.00
9949;DHT22;5013;51.840;8.276;2023-06-26T16:21:50;24.90;1.00
9949;DHT22;5013;51.840;8.276;2023-06-26T16:24:16;24.80;1.00